sensor_id;sensor_type;location;lat;lon;timestamp;temperature;humidity
68924;DHT22;55961;52.156;20.942;2022-12-29T00:01:21;5.60;69.40
68924;DHT22;55961;52.156;20.942;2022-12-29T00:03:48;5.60;69.40
68924;DHT22;55961;52.156;20.942;2022-12-29T00:06:13;5.60;69.70
68924;DHT22;55961;52.156;20.942;2022-12-29T00:08:39;5.60;69.30
68924;DHT22;55961;52.156;20.942;2022-12-29T00:11:10;5.60;69.50
68924;DHT22;55961;52.156;20.942;2022-12-29T00:13:36;5.60;69.60
68924;DHT22;55961;52.156;20.942;2022-12-29T00:16:43;5.60;69.60
68924;DHT22;55961;52.156;20.942;2022-12-29T00:19:11;5.50;69.70
68924;DHT22;55961;52.156;20.942;2022-12-29T00:21:58;5.60;69.80
68924;DHT22;55961;52.156;20.942;2022-12-29T00:24:44;5.50;69.90
68924;DHT22;55961;52.156;20.942;2022-12-29T00:27:19;5.50;69.90
68924;DHT22;55961;52.156;20.942;2022-12-29T00:30:09;5.50;69.80
68924;DHT22;55961;52.156;20.942;2022-12-29T00:32:54;5.50;70.00
68924;DHT22;55961;52.156;20.942;2022-12-29T00:35:44;5.60;69.90
68924;DHT22;55961;52.156;20.942;2022-12-29T00:38:11;5.60;69.80
68924;DHT22;55961;52.156;20.942;2022-12-29T00:40:56;5.60;69.90
68924;DHT22;55961;52.156;20.942;2022-12-29T00:43:41;5.50;69.80
68924;DHT22;55961;52.156;20.942;2022-12-29T00:46:25;5.60;69.90
68924;DHT22;55961;52.156;20.942;2022-12-29T00:48:51;5.60;69.90
68924;DHT22;55961;52.156;20.942;2022-12-29T00:51:36;5.60;69.90
68924;DHT22;55961;52.156;20.942;2022-12-29T00:54:02;5.60;69.90
68924;DHT22;55961;52.156;20.942;2022-12-29T00:56:28;5.60;69.80
68924;DHT22;55961;52.156;20.942;2022-12-29T00:58:55;5.60;69.90
68924;DHT22;55961;52.156;20.942;2022-12-29T01:01:20;5.60;70.10
68924;DHT22;55961;52.156;20.942;2022-12-29T01:03:46;5.60;70.10
68924;DHT22;55961;52.156;20.942;2022-12-29T01:06:13;5.60;70.10
68924;DHT22;55961;52.156;20.942;2022-12-29T01:08:39;5.60;70.10
68924;DHT22;55961;52.156;20.942;2022-12-29T01:11:12;5.60;70.00
68924;DHT22;55961;52.156;20.942;2022-12-29T01:13:39;5.50;70.10
68924;DHT22;55961;52.156;20.942;2022-12-29T01:16:06;5.50;70.20
68924;DHT22;55961;52.156;20.942;2022-12-29T01:18:32;5.50;70.00
68924;DHT22;55961;52.156;20.942;2022-12-29T01:21:06;5.50;70.10
68924;DHT22;55961;52.156;20.942;2022-12-29T01:23:32;5.50;70.20
68924;DHT22;55961;52.156;20.942;2022-12-29T01:26:08;5.50;69.90
68924;DHT22;55961;52.156;20.942;2022-12-29T01:28:34;5.50;69.90
68924;DHT22;55961;52.156;20.942;2022-12-29T01:31:01;5.40;70.00
68924;DHT22;55961;52.156;20.942;2022-12-29T01:33:27;5.40;70.00
68924;DHT22;55961;52.156;20.942;2022-12-29T01:35:53;5.40;69.90
68924;DHT22;55961;52.156;20.942;2022-12-29T01:38:19;5.40;70.00
68924;DHT22;55961;52.156;20.942;2022-12-29T01:40:46;5.40;70.10
68924;DHT22;55961;52.156;20.942;2022-12-29T01:43:13;5.40;70.00
68924;DHT22;55961;52.156;20.942;2022-12-29T01:45:48;5.40;69.90
68924;DHT22;55961;52.156;20.942;2022-12-29T01:48:15;5.40;70.00
68924;DHT22;55961;52.156;20.942;2022-12-29T01:50:47;5.30;69.90
68924;DHT22;55961;52.156;20.942;2022-12-29T01:53:24;5.30;70.20
68924;DHT22;55961;52.156;20.942;2022-12-29T01:55:55;5.30;70.00
68924;DHT22;55961;52.156;20.942;2022-12-29T01:58:24;5.30;70.10
68924;DHT22;55961;52.156;20.942;2022-12-29T02:00:51;5.30;70.20
68924;DHT22;55961;52.156;20.942;2022-12-29T02:03:19;5.30;70.30
68924;DHT22;55961;52.156;20.942;2022-12-29T02:06:01;5.30;70.20
68924;DHT22;55961;52.156;20.942;2022-12-29T02:08:29;5.30;70.40
68924;DHT22;55961;52.156;20.942;2022-12-29T02:10:56;5.30;70.60
68924;DHT22;55961;52.156;20.942;2022-12-29T02:13:27;5.30;70.70
68924;DHT22;55961;52.156;20.942;2022-12-29T02:25:10;5.20;71.20
68924;DHT22;55961;52.156;20.942;2022-12-29T02:33:28;5.20;71.20
68924;DHT22;55961;52.156;20.942;2022-12-29T02:38:47;5.10;71.50
68924;DHT22;55961;52.156;20.942;2022-12-29T02:44:01;5.10;72.10
68924;DHT22;55961;52.156;20.942;2022-12-29T02:49:27;5.10;72.20
68924;DHT22;55961;52.156;20.942;2022-12-29T02:52:10;5.10;72.60
68924;DHT22;55961;52.156;20.942;2022-12-29T02:54:38;5.10;72.80
68924;DHT22;55961;52.156;20.942;2022-12-29T02:57:33;5.10;73.30
68924;DHT22;55961;52.156;20.942;2022-12-29T03:00:17;5.00;73.50
68924;DHT22;55961;52.156;20.942;2022-12-29T03:05:58;5.00;74.40
68924;DHT22;55961;52.156;20.942;2022-12-29T03:08:34;5.00;75.10
68924;DHT22;55961;52.156;20.942;2022-12-29T03:11:07;5.00;75.80
68924;DHT22;55961;52.156;20.942;2022-12-29T03:14:09;4.90;76.40
68924;DHT22;55961;52.156;20.942;2022-12-29T03:17:01;4.90;76.60
68924;DHT22;55961;52.156;20.942;2022-12-29T03:19:31;4.90;77.00
68924;DHT22;55961;52.156;20.942;2022-12-29T03:22:01;4.80;77.40
68924;DHT22;55961;52.156;20.942;2022-12-29T03:24:52;4.80;77.50
68924;DHT22;55961;52.156;20.942;2022-12-29T03:27:23;4.80;77.80
68924;DHT22;55961;52.156;20.942;2022-12-29T03:29:54;4.70;77.80
68924;DHT22;55961;52.156;20.942;2022-12-29T03:32:26;4.70;78.40
68924;DHT22;55961;52.156;20.942;2022-12-29T03:34:54;4.70;78.80
68924;DHT22;55961;52.156;20.942;2022-12-29T03:37:34;4.60;78.90
68924;DHT22;55961;52.156;20.942;2022-12-29T03:40:02;4.60;78.90
68924;DHT22;55961;52.156;20.942;2022-12-29T03:42:31;4.60;79.00
68924;DHT22;55961;52.156;20.942;2022-12-29T03:44:57;4.50;79.40
68924;DHT22;55961;52.156;20.942;2022-12-29T03:47:24;4.50;79.60
68924;DHT22;55961;52.156;20.942;2022-12-29T03:49:52;4.50;79.80
68924;DHT22;55961;52.156;20.942;2022-12-29T03:52:19;4.50;79.90
68924;DHT22;55961;52.156;20.942;2022-12-29T03:54:44;4.40;80.00
68924;DHT22;55961;52.156;20.942;2022-12-29T03:57:11;4.40;80.20
68924;DHT22;55961;52.156;20.942;2022-12-29T03:59:37;4.40;80.40
68924;DHT22;55961;52.156;20.942;2022-12-29T04:02:03;4.30;80.30
68924;DHT22;55961;52.156;20.942;2022-12-29T04:04:28;4.30;80.40
68924;DHT22;55961;52.156;20.942;2022-12-29T04:06:54;4.30;80.40
68924;DHT22;55961;52.156;20.942;2022-12-29T04:09:20;4.30;80.20
68924;DHT22;55961;52.156;20.942;2022-12-29T04:11:46;4.20;80.40
68924;DHT22;55961;52.156;20.942;2022-12-29T04:14:12;4.20;80.50
68924;DHT22;55961;52.156;20.942;2022-12-29T04:16:38;4.20;80.60
68924;DHT22;55961;52.156;20.942;2022-12-29T04:19:05;4.20;80.40
68924;DHT22;55961;52.156;20.942;2022-12-29T04:21:31;4.20;80.60
68924;DHT22;55961;52.156;20.942;2022-12-29T04:23:57;4.20;80.40
68924;DHT22;55961;52.156;20.942;2022-12-29T04:26:23;4.20;80.30
68924;DHT22;55961;52.156;20.942;2022-12-29T04:28:49;4.10;80.40
68924;DHT22;55961;52.156;20.942;2022-12-29T04:31:15;4.10;80.30
68924;DHT22;55961;52.156;20.942;2022-12-29T04:33:41;4.10;80.00
68924;DHT22;55961;52.156;20.942;2022-12-29T04:36:07;4.10;79.60
68924;DHT22;55961;52.156;20.942;2022-12-29T04:38:33;4.10;79.40
68924;DHT22;55961;52.156;20.942;2022-12-29T04:41:00;4.10;79.40
68924;DHT22;55961;52.156;20.942;2022-12-29T04:43:26;4.10;79.30
68924;DHT22;55961;52.156;20.942;2022-12-29T04:45:53;4.10;79.40
68924;DHT22;55961;52.156;20.942;2022-12-29T04:48:18;4.10;79.30
68924;DHT22;55961;52.156;20.942;2022-12-29T04:50:48;4.00;79.30
68924;DHT22;55961;52.156;20.942;2022-12-29T04:53:14;4.00;79.20
68924;DHT22;55961;52.156;20.942;2022-12-29T04:55:40;4.00;78.90
68924;DHT22;55961;52.156;20.942;2022-12-29T04:58:06;4.00;78.70
68924;DHT22;55961;52.156;20.942;2022-12-29T05:00:32;4.00;78.60
68924;DHT22;55961;52.156;20.942;2022-12-29T05:02:58;4.00;78.50
68924;DHT22;55961;52.156;20.942;2022-12-29T05:05:25;4.00;78.40
68924;DHT22;55961;52.156;20.942;2022-12-29T05:07:51;4.00;78.30
68924;DHT22;55961;52.156;20.942;2022-12-29T05:10:17;4.00;78.10
68924;DHT22;55961;52.156;20.942;2022-12-29T05:12:42;4.00;78.00
68924;DHT22;55961;52.156;20.942;2022-12-29T05:15:10;4.00;78.00
68924;DHT22;55961;52.156;20.942;2022-12-29T05:17:36;4.00;77.60
68924;DHT22;55961;52.156;20.942;2022-12-29T05:20:05;4.00;77.60
68924;DHT22;55961;52.156;20.942;2022-12-29T05:22:32;3.90;77.40
68924;DHT22;55961;52.156;20.942;2022-12-29T05:24:58;3.90;77.30
68924;DHT22;55961;52.156;20.942;2022-12-29T05:27:25;3.90;77.50
68924;DHT22;55961;52.156;20.942;2022-12-29T05:29:51;3.90;77.40
68924;DHT22;55961;52.156;20.942;2022-12-29T05:32:17;3.90;76.90
68924;DHT22;55961;52.156;20.942;2022-12-29T05:34:43;3.90;76.90
68924;DHT22;55961;52.156;20.942;2022-12-29T05:37:08;3.90;76.60
68924;DHT22;55961;52.156;20.942;2022-12-29T05:39:34;3.90;76.70
68924;DHT22;55961;52.156;20.942;2022-12-29T05:42:00;3.90;76.60
68924;DHT22;55961;52.156;20.942;2022-12-29T05:44:26;3.90;76.60
68924;DHT22;55961;52.156;20.942;2022-12-29T05:46:52;3.90;76.20
68924;DHT22;55961;52.156;20.942;2022-12-29T05:49:18;3.90;76.00
68924;DHT22;55961;52.156;20.942;2022-12-29T05:51:44;3.90;75.80
68924;DHT22;55961;52.156;20.942;2022-12-29T05:54:10;3.90;75.60
68924;DHT22;55961;52.156;20.942;2022-12-29T05:56:36;3.90;75.80
68924;DHT22;55961;52.156;20.942;2022-12-29T05:59:02;3.90;75.60
68924;DHT22;55961;52.156;20.942;2022-12-29T06:01:28;3.90;75.50
68924;DHT22;55961;52.156;20.942;2022-12-29T06:03:54;3.90;75.40
68924;DHT22;55961;52.156;20.942;2022-12-29T06:06:20;3.90;74.80
68924;DHT22;55961;52.156;20.942;2022-12-29T06:08:46;3.90;74.70
68924;DHT22;55961;52.156;20.942;2022-12-29T06:11:12;3.90;74.80
68924;DHT22;55961;52.156;20.942;2022-12-29T06:13:38;3.90;74.70
68924;DHT22;55961;52.156;20.942;2022-12-29T06:16:04;4.00;73.90
68924;DHT22;55961;52.156;20.942;2022-12-29T06:18:30;4.00;74.00
68924;DHT22;55961;52.156;20.942;2022-12-29T06:21:03;4.00;73.80
68924;DHT22;55961;52.156;20.942;2022-12-29T06:23:30;4.00;73.20
68924;DHT22;55961;52.156;20.942;2022-12-29T06:25:56;4.10;73.10
68924;DHT22;55961;52.156;20.942;2022-12-29T06:28:23;4.10;72.80
68924;DHT22;55961;52.156;20.942;2022-12-29T06:30:49;4.10;72.90
68924;DHT22;55961;52.156;20.942;2022-12-29T06:33:15;4.10;72.90
68924;DHT22;55961;52.156;20.942;2022-12-29T06:35:42;4.20;72.50
68924;DHT22;55961;52.156;20.942;2022-12-29T06:38:08;4.20;72.50
68924;DHT22;55961;52.156;20.942;2022-12-29T06:40:34;4.30;72.90
68924;DHT22;55961;52.156;20.942;2022-12-29T06:43:00;4.30;72.80
68924;DHT22;55961;52.156;20.942;2022-12-29T06:45:26;4.30;72.60
68924;DHT22;55961;52.156;20.942;2022-12-29T06:47:52;4.30;72.50
68924;DHT22;55961;52.156;20.942;2022-12-29T06:50:18;4.30;72.40
68924;DHT22;55961;52.156;20.942;2022-12-29T06:52:44;4.30;72.30
68924;DHT22;55961;52.156;20.942;2022-12-29T06:55:09;4.30;71.80
68924;DHT22;55961;52.156;20.942;2022-12-29T06:57:35;4.30;71.90
68924;DHT22;55961;52.156;20.942;2022-12-29T07:00:03;4.40;71.80
68924;DHT22;55961;52.156;20.942;2022-12-29T07:02:29;4.40;71.80
68924;DHT22;55961;52.156;20.942;2022-12-29T07:04:55;4.40;71.10
68924;DHT22;55961;52.156;20.942;2022-12-29T07:07:21;4.40;71.20
68924;DHT22;55961;52.156;20.942;2022-12-29T07:09:46;4.40;71.70
68924;DHT22;55961;52.156;20.942;2022-12-29T07:12:12;4.50;71.20
68924;DHT22;55961;52.156;20.942;2022-12-29T07:14:38;4.50;71.20
68924;DHT22;55961;52.156;20.942;2022-12-29T07:17:05;4.50;70.80
68924;DHT22;55961;52.156;20.942;2022-12-29T07:19:32;4.50;70.70
68924;DHT22;55961;52.156;20.942;2022-12-29T07:21:59;4.50;70.60
68924;DHT22;55961;52.156;20.942;2022-12-29T07:24:25;4.60;70.60
68924;DHT22;55961;52.156;20.942;2022-12-29T07:26:54;4.60;70.70
68924;DHT22;55961;52.156;20.942;2022-12-29T07:29:19;4.60;70.40
68924;DHT22;55961;52.156;20.942;2022-12-29T07:31:45;4.60;70.40
68924;DHT22;55961;52.156;20.942;2022-12-29T07:34:11;4.60;70.30
68924;DHT22;55961;52.156;20.942;2022-12-29T07:36:37;4.60;70.30
68924;DHT22;55961;52.156;20.942;2022-12-29T07:39:03;4.60;70.10
68924;DHT22;55961;52.156;20.942;2022-12-29T07:41:29;4.70;70.20
68924;DHT22;55961;52.156;20.942;2022-12-29T07:43:55;4.70;70.20
68924;DHT22;55961;52.156;20.942;2022-12-29T07:46:21;4.70;70.10
68924;DHT22;55961;52.156;20.942;2022-12-29T07:48:47;4.70;70.20
68924;DHT22;55961;52.156;20.942;2022-12-29T07:51:13;4.70;70.20
68924;DHT22;55961;52.156;20.942;2022-12-29T07:53:39;4.80;69.90
68924;DHT22;55961;52.156;20.942;2022-12-29T07:56:05;4.80;70.00
68924;DHT22;55961;52.156;20.942;2022-12-29T07:58:31;4.80;70.00
68924;DHT22;55961;52.156;20.942;2022-12-29T08:00:58;4.80;69.90
68924;DHT22;55961;52.156;20.942;2022-12-29T08:03:24;4.80;69.80
68924;DHT22;55961;52.156;20.942;2022-12-29T08:05:51;4.90;69.80
68924;DHT22;55961;52.156;20.942;2022-12-29T08:08:17;4.90;69.70
68924;DHT22;55961;52.156;20.942;2022-12-29T08:10:44;4.90;69.70
68924;DHT22;55961;52.156;20.942;2022-12-29T08:13:09;5.00;69.10
68924;DHT22;55961;52.156;20.942;2022-12-29T08:15:37;5.00;68.80
68924;DHT22;55961;52.156;20.942;2022-12-29T08:18:03;5.10;68.60
68924;DHT22;55961;52.156;20.942;2022-12-29T08:20:29;5.10;68.40
68924;DHT22;55961;52.156;20.942;2022-12-29T08:22:55;5.20;68.20
68924;DHT22;55961;52.156;20.942;2022-12-29T08:25:21;5.20;68.00
68924;DHT22;55961;52.156;20.942;2022-12-29T08:27:46;5.20;68.00
68924;DHT22;55961;52.156;20.942;2022-12-29T08:30:13;5.30;67.70
68924;DHT22;55961;52.156;20.942;2022-12-29T08:32:38;5.30;67.10
68924;DHT22;55961;52.156;20.942;2022-12-29T08:35:05;5.40;67.00
68924;DHT22;55961;52.156;20.942;2022-12-29T08:37:32;5.40;67.00
68924;DHT22;55961;52.156;20.942;2022-12-29T08:39:59;5.50;66.90
68924;DHT22;55961;52.156;20.942;2022-12-29T08:42:29;5.50;66.70
68924;DHT22;55961;52.156;20.942;2022-12-29T08:44:59;5.60;67.10
68924;DHT22;55961;52.156;20.942;2022-12-29T08:47:26;5.60;66.80
68924;DHT22;55961;52.156;20.942;2022-12-29T08:49:52;5.60;67.10
68924;DHT22;55961;52.156;20.942;2022-12-29T08:52:18;5.60;66.80
68924;DHT22;55961;52.156;20.942;2022-12-29T08:54:44;5.70;66.70
68924;DHT22;55961;52.156;20.942;2022-12-29T08:57:10;5.70;66.40
68924;DHT22;55961;52.156;20.942;2022-12-29T08:59:36;5.80;66.30
68924;DHT22;55961;52.156;20.942;2022-12-29T09:02:02;5.80;66.20
68924;DHT22;55961;52.156;20.942;2022-12-29T09:04:28;5.80;66.30
68924;DHT22;55961;52.156;20.942;2022-12-29T09:06:54;5.90;65.90
68924;DHT22;55961;52.156;20.942;2022-12-29T09:09:20;5.90;65.90
68924;DHT22;55961;52.156;20.942;2022-12-29T09:11:46;6.00;66.10
68924;DHT22;55961;52.156;20.942;2022-12-29T09:14:12;6.00;66.00
68924;DHT22;55961;52.156;20.942;2022-12-29T09:16:39;6.10;65.90
68924;DHT22;55961;52.156;20.942;2022-12-29T09:19:05;6.10;66.20
68924;DHT22;55961;52.156;20.942;2022-12-29T09:21:31;6.10;65.90
68924;DHT22;55961;52.156;20.942;2022-12-29T09:23:57;6.10;65.90
68924;DHT22;55961;52.156;20.942;2022-12-29T09:26:23;6.20;65.70
68924;DHT22;55961;52.156;20.942;2022-12-29T09:28:49;6.20;65.90
68924;DHT22;55961;52.156;20.942;2022-12-29T09:31:14;6.20;65.90
68924;DHT22;55961;52.156;20.942;2022-12-29T09:33:40;6.30;65.90
68924;DHT22;55961;52.156;20.942;2022-12-29T09:36:07;6.30;65.40
68924;DHT22;55961;52.156;20.942;2022-12-29T09:38:33;6.40;65.10
68924;DHT22;55961;52.156;20.942;2022-12-29T09:41:21;6.40;64.50
68924;DHT22;55961;52.156;20.942;2022-12-29T09:49:19;6.50;64.50
68924;DHT22;55961;52.156;20.942;2022-12-29T09:51:53;6.50;64.50
68924;DHT22;55961;52.156;20.942;2022-12-29T09:56:57;6.60;64.50
68924;DHT22;55961;52.156;20.942;2022-12-29T09:59:31;6.60;64.10
68924;DHT22;55961;52.156;20.942;2022-12-29T10:02:38;6.70;64.00
68924;DHT22;55961;52.156;20.942;2022-12-29T10:05:29;6.70;64.40
68924;DHT22;55961;52.156;20.942;2022-12-29T10:19:26;6.70;63.90
68924;DHT22;55961;52.156;20.942;2022-12-29T10:22:13;6.70;64.00
68924;DHT22;55961;52.156;20.942;2022-12-29T10:24:42;6.80;64.20
68924;DHT22;55961;52.156;20.942;2022-12-29T10:27:12;6.70;64.40
68924;DHT22;55961;52.156;20.942;2022-12-29T10:29:49;6.70;64.30
68924;DHT22;55961;52.156;20.942;2022-12-29T10:35:37;6.80;64.40
68924;DHT22;55961;52.156;20.942;2022-12-29T10:38:28;6.80;64.60
68924;DHT22;55961;52.156;20.942;2022-12-29T10:41:00;6.80;64.70
68924;DHT22;55961;52.156;20.942;2022-12-29T10:43:32;6.90;64.30
68924;DHT22;55961;52.156;20.942;2022-12-29T10:46:04;6.90;64.20
68924;DHT22;55961;52.156;20.942;2022-12-29T10:48:33;6.90;64.00
68924;DHT22;55961;52.156;20.942;2022-12-29T10:51:01;7.00;63.90
68924;DHT22;55961;52.156;20.942;2022-12-29T10:53:34;7.10;63.70
68924;DHT22;55961;52.156;20.942;2022-12-29T10:56:01;7.10;63.50
68924;DHT22;55961;52.156;20.942;2022-12-29T10:58:29;7.10;63.90
68924;DHT22;55961;52.156;20.942;2022-12-29T11:00:56;7.20;63.50
68924;DHT22;55961;52.156;20.942;2022-12-29T11:06:27;7.30;63.20
68924;DHT22;55961;52.156;20.942;2022-12-29T11:09:08;7.30;63.50
68924;DHT22;55961;52.156;20.942;2022-12-29T11:11:36;7.30;63.20
68924;DHT22;55961;52.156;20.942;2022-12-29T11:14:26;7.40;63.30
68924;DHT22;55961;52.156;20.942;2022-12-29T11:17:00;7.40;63.10
68924;DHT22;55961;52.156;20.942;2022-12-29T11:19:29;7.40;63.10
68924;DHT22;55961;52.156;20.942;2022-12-29T11:22:22;7.40;63.50
68924;DHT22;55961;52.156;20.942;2022-12-29T11:24:49;7.40;63.60
68924;DHT22;55961;52.156;20.942;2022-12-29T11:27:26;7.40;63.60
68924;DHT22;55961;52.156;20.942;2022-12-29T11:29:53;7.40;63.70
68924;DHT22;55961;52.156;20.942;2022-12-29T11:32:25;7.40;63.70
68924;DHT22;55961;52.156;20.942;2022-12-29T11:34:51;7.40;63.70
68924;DHT22;55961;52.156;20.942;2022-12-29T11:37:32;7.40;63.60
68924;DHT22;55961;52.156;20.942;2022-12-29T11:40:19;7.40;63.70
68924;DHT22;55961;52.156;20.942;2022-12-29T11:42:56;7.40;63.70
68924;DHT22;55961;52.156;20.942;2022-12-29T11:45:26;7.50;63.80
68924;DHT22;55961;52.156;20.942;2022-12-29T11:47:59;7.50;63.90
68924;DHT22;55961;52.156;20.942;2022-12-29T11:50:30;7.50;64.00
68924;DHT22;55961;52.156;20.942;2022-12-29T11:52:59;7.50;64.00
68924;DHT22;55961;52.156;20.942;2022-12-29T11:55:26;7.50;64.10
68924;DHT22;55961;52.156;20.942;2022-12-29T11:57:56;7.50;64.20
68924;DHT22;55961;52.156;20.942;2022-12-29T12:00:24;7.60;64.10
68924;DHT22;55961;52.156;20.942;2022-12-29T12:03:01;7.60;64.30
68924;DHT22;55961;52.156;20.942;2022-12-29T12:05:36;7.60;64.10
68924;DHT22;55961;52.156;20.942;2022-12-29T12:08:11;7.60;64.00
68924;DHT22;55961;52.156;20.942;2022-12-29T12:10:46;7.70;64.30
68924;DHT22;55961;52.156;20.942;2022-12-29T12:13:27;7.70;64.10
68924;DHT22;55961;52.156;20.942;2022-12-29T12:16:08;7.70;63.90
68924;DHT22;55961;52.156;20.942;2022-12-29T12:18:47;7.70;63.90
68924;DHT22;55961;52.156;20.942;2022-12-29T12:21:38;7.80;63.90
68924;DHT22;55961;52.156;20.942;2022-12-29T12:24:43;7.80;63.40
68924;DHT22;55961;52.156;20.942;2022-12-29T12:27:33;7.90;63.60
68924;DHT22;55961;52.156;20.942;2022-12-29T12:35:13;7.90;63.90
68924;DHT22;55961;52.156;20.942;2022-12-29T12:40:46;8.00;63.20
68924;DHT22;55961;52.156;20.942;2022-12-29T12:43:46;8.00;63.30
68924;DHT22;55961;52.156;20.942;2022-12-29T12:49:13;8.10;63.20
68924;DHT22;55961;52.156;20.942;2022-12-29T12:57:28;8.20;63.20
68924;DHT22;55961;52.156;20.942;2022-12-29T13:00:15;8.20;63.10
68924;DHT22;55961;52.156;20.942;2022-12-29T13:05:57;8.20;63.20
68924;DHT22;55961;52.156;20.942;2022-12-29T13:18:53;8.30;63.30
68924;DHT22;55961;52.156;20.942;2022-12-29T13:24:31;8.30;63.20
68924;DHT22;55961;52.156;20.942;2022-12-29T13:27:14;8.30;63.20
68924;DHT22;55961;52.156;20.942;2022-12-29T13:30:01;8.30;63.00
68924;DHT22;55961;52.156;20.942;2022-12-29T13:37:36;8.40;63.40
68924;DHT22;55961;52.156;20.942;2022-12-29T13:40:14;8.40;63.60
68924;DHT22;55961;52.156;20.942;2022-12-29T13:42:42;8.40;63.40
68924;DHT22;55961;52.156;20.942;2022-12-29T13:45:16;8.40;63.40
68924;DHT22;55961;52.156;20.942;2022-12-29T13:47:55;8.40;63.60
68924;DHT22;55961;52.156;20.942;2022-12-29T13:50:26;8.40;63.50
68924;DHT22;55961;52.156;20.942;2022-12-29T13:55:45;8.40;63.50
68924;DHT22;55961;52.156;20.942;2022-12-29T13:58:24;8.40;63.60
68924;DHT22;55961;52.156;20.942;2022-12-29T14:03:51;8.40;63.40
68924;DHT22;55961;52.156;20.942;2022-12-29T14:06:31;8.40;63.40
68924;DHT22;55961;52.156;20.942;2022-12-29T14:09:02;8.40;63.40
68924;DHT22;55961;52.156;20.942;2022-12-29T14:11:38;8.50;63.30
68924;DHT22;55961;52.156;20.942;2022-12-29T14:14:16;8.50;63.30
68924;DHT22;55961;52.156;20.942;2022-12-29T14:16:45;8.50;63.30
68924;DHT22;55961;52.156;20.942;2022-12-29T14:19:30;8.50;63.20
68924;DHT22;55961;52.156;20.942;2022-12-29T14:22:02;8.50;63.30
68924;DHT22;55961;52.156;20.942;2022-12-29T14:26:58;8.50;63.30
68924;DHT22;55961;52.156;20.942;2022-12-29T14:31:52;8.50;63.10
68924;DHT22;55961;52.156;20.942;2022-12-29T14:36:58;8.50;63.50
68924;DHT22;55961;52.156;20.942;2022-12-29T14:39:37;8.50;63.50
68924;DHT22;55961;52.156;20.942;2022-12-29T14:47:38;8.40;63.70
68924;DHT22;55961;52.156;20.942;2022-12-29T14:50:16;8.40;63.90
68924;DHT22;55961;52.156;20.942;2022-12-29T14:57:50;8.40;63.80
68924;DHT22;55961;52.156;20.942;2022-12-29T15:00:18;8.40;63.90
68924;DHT22;55961;52.156;20.942;2022-12-29T15:02:53;8.40;63.70
68924;DHT22;55961;52.156;20.942;2022-12-29T15:05:29;8.40;63.70
68924;DHT22;55961;52.156;20.942;2022-12-29T15:07:57;8.40;63.80
68924;DHT22;55961;52.156;20.942;2022-12-29T15:10:24;8.40;63.90
68924;DHT22;55961;52.156;20.942;2022-12-29T15:13:00;8.40;64.00
68924;DHT22;55961;52.156;20.942;2022-12-29T15:15:28;8.40;63.90
68924;DHT22;55961;52.156;20.942;2022-12-29T15:17:55;8.40;64.10
68924;DHT22;55961;52.156;20.942;2022-12-29T15:20:27;8.40;64.20
68924;DHT22;55961;52.156;20.942;2022-12-29T15:23:00;8.40;64.00
68924;DHT22;55961;52.156;20.942;2022-12-29T15:25:27;8.40;64.00
68924;DHT22;55961;52.156;20.942;2022-12-29T15:27:59;8.40;64.00
68924;DHT22;55961;52.156;20.942;2022-12-29T15:30:28;8.40;64.00
68924;DHT22;55961;52.156;20.942;2022-12-29T15:32:58;8.40;63.90
68924;DHT22;55961;52.156;20.942;2022-12-29T15:35:37;8.40;63.90
68924;DHT22;55961;52.156;20.942;2022-12-29T15:38:24;8.40;63.90
68924;DHT22;55961;52.156;20.942;2022-12-29T15:44:09;8.40;64.20
68924;DHT22;55961;52.156;20.942;2022-12-29T15:46:36;8.40;64.10
68924;DHT22;55961;52.156;20.942;2022-12-29T15:49:11;8.40;64.10
68924;DHT22;55961;52.156;20.942;2022-12-29T15:51:39;8.40;64.20
68924;DHT22;55961;52.156;20.942;2022-12-29T15:54:21;8.40;64.30
68924;DHT22;55961;52.156;20.942;2022-12-29T15:56:48;8.40;64.10
68924;DHT22;55961;52.156;20.942;2022-12-29T15:59:45;8.40;64.20
68924;DHT22;55961;52.156;20.942;2022-12-29T16:02:11;8.40;64.30
68924;DHT22;55961;52.156;20.942;2022-12-29T16:04:38;8.40;64.40
68924;DHT22;55961;52.156;20.942;2022-12-29T16:07:06;8.40;64.50
68924;DHT22;55961;52.156;20.942;2022-12-29T16:09:46;8.40;64.50
68924;DHT22;55961;52.156;20.942;2022-12-29T16:12:22;8.30;64.70
68924;DHT22;55961;52.156;20.942;2022-12-29T16:14:56;8.30;64.80
68924;DHT22;55961;52.156;20.942;2022-12-29T16:17:26;8.30;64.80
68924;DHT22;55961;52.156;20.942;2022-12-29T16:22:32;8.20;65.00
68924;DHT22;55961;52.156;20.942;2022-12-29T16:25:02;8.20;65.10
68924;DHT22;55961;52.156;20.942;2022-12-29T16:27:37;8.20;65.40
68924;DHT22;55961;52.156;20.942;2022-12-29T16:30:12;8.20;65.50
68924;DHT22;55961;52.156;20.942;2022-12-29T16:32:59;8.10;65.60
68924;DHT22;55961;52.156;20.942;2022-12-29T16:35:37;8.10;65.70
68924;DHT22;55961;52.156;20.942;2022-12-29T16:38:16;8.10;65.80
68924;DHT22;55961;52.156;20.942;2022-12-29T16:40:58;8.10;65.80
68924;DHT22;55961;52.156;20.942;2022-12-29T16:43:36;8.10;65.90
68924;DHT22;55961;52.156;20.942;2022-12-29T16:46:27;8.00;66.10
68924;DHT22;55961;52.156;20.942;2022-12-29T16:48:55;8.00;66.30
68924;DHT22;55961;52.156;20.942;2022-12-29T16:51:32;8.00;66.40
68924;DHT22;55961;52.156;20.942;2022-12-29T16:53:59;8.00;66.40
68924;DHT22;55961;52.156;20.942;2022-12-29T16:56:30;8.00;66.50
68924;DHT22;55961;52.156;20.942;2022-12-29T16:59:08;7.90;66.70
68924;DHT22;55961;52.156;20.942;2022-12-29T17:01:38;7.90;66.70
68924;DHT22;55961;52.156;20.942;2022-12-29T17:04:10;7.90;66.60
68924;DHT22;55961;52.156;20.942;2022-12-29T17:06:37;7.90;66.60
68924;DHT22;55961;52.156;20.942;2022-12-29T17:09:15;8.00;66.50
68924;DHT22;55961;52.156;20.942;2022-12-29T17:11:41;8.00;66.50
68924;DHT22;55961;52.156;20.942;2022-12-29T17:14:42;8.00;66.40
68924;DHT22;55961;52.156;20.942;2022-12-29T17:19:44;8.10;66.20
68924;DHT22;55961;52.156;20.942;2022-12-29T17:22:25;8.10;66.30
68924;DHT22;55961;52.156;20.942;2022-12-29T17:24:56;8.10;66.30
68924;DHT22;55961;52.156;20.942;2022-12-29T17:27:33;8.10;66.40
68924;DHT22;55961;52.156;20.942;2022-12-29T17:30:03;8.10;66.30
68924;DHT22;55961;52.156;20.942;2022-12-29T17:32:31;8.10;66.40
68924;DHT22;55961;52.156;20.942;2022-12-29T17:34:57;8.10;66.30
68924;DHT22;55961;52.156;20.942;2022-12-29T17:39:49;8.10;66.30
68924;DHT22;55961;52.156;20.942;2022-12-29T17:42:16;8.10;66.50
68924;DHT22;55961;52.156;20.942;2022-12-29T17:44:43;8.10;66.50
68924;DHT22;55961;52.156;20.942;2022-12-29T17:47:12;8.10;66.50
68924;DHT22;55961;52.156;20.942;2022-12-29T17:49:40;8.10;66.60
68924;DHT22;55961;52.156;20.942;2022-12-29T17:52:15;8.10;66.50
68924;DHT22;55961;52.156;20.942;2022-12-29T17:54:45;8.10;66.60
68924;DHT22;55961;52.156;20.942;2022-12-29T17:57:15;8.10;66.60
68924;DHT22;55961;52.156;20.942;2022-12-29T17:59:42;8.10;66.70